createdAt,value
2023-01-04T00:01:54.235Z,8.00
2023-01-04T00:04:21.035Z,8.00
2023-01-04T00:06:47.713Z,8.00
2023-01-04T00:09:14.432Z,8.00
2023-01-04T00:11:41.066Z,8.00
2023-01-04T00:14:10.633Z,8.00
2023-01-04T00:16:37.371Z,8.00
2023-01-04T00:19:04.131Z,8.10
2023-01-04T00:21:31.555Z,8.00
2023-01-04T00:24:00.891Z,8.00
2023-01-04T00:26:30.511Z,8.00
2023-01-04T00:29:02.787Z,8.00
2023-01-04T00:31:30.119Z,7.90
2023-01-04T00:33:58.516Z,7.90
2023-01-04T00:36:26.319Z,7.90
2023-01-04T00:39:09.940Z,7.90
2023-01-04T00:42:01.766Z,7.90
2023-01-04T00:44:30.071Z,7.90
2023-01-04T00:46:57.140Z,7.90
2023-01-04T00:49:23.906Z,7.90
2023-01-04T00:51:50.654Z,7.80
2023-01-04T00:54:17.506Z,7.80
2023-01-04T00:56:44.640Z,7.80
2023-01-04T00:59:14.127Z,7.80
2023-01-04T01:01:42.160Z,7.80
2023-01-04T01:04:14.909Z,7.80
2023-01-04T01:06:42.029Z,7.80
2023-01-04T01:09:09.621Z,7.70
2023-01-04T01:11:38.228Z,7.80
2023-01-04T01:14:05.981Z,7.80
2023-01-04T01:19:19.676Z,7.70
2023-01-04T01:21:46.360Z,7.70
2023-01-04T01:24:18.212Z,7.70
2023-01-04T01:26:44.949Z,7.70
2023-01-04T01:29:11.725Z,7.60
2023-01-04T01:31:38.410Z,7.60
2023-01-04T01:34:05.150Z,7.60
2023-01-04T01:36:31.808Z,7.60
2023-01-04T01:38:58.887Z,7.50
2023-01-04T01:41:28.511Z,7.50
2023-01-04T01:43:59.406Z,7.50
2023-01-04T01:46:45.088Z,7.50
2023-01-04T01:49:27.296Z,7.50
2023-01-04T01:51:57.524Z,7.50
2023-01-04T01:54:28.890Z,7.40
2023-01-04T01:57:00.121Z,7.40
2023-01-04T01:59:28.789Z,7.40
2023-01-04T02:01:55.619Z,7.40
2023-01-04T02:04:22.327Z,7.40
2023-01-04T02:06:53.144Z,7.40
2023-01-04T02:09:21.201Z,7.30
2023-01-04T02:11:47.847Z,7.30
2023-01-04T02:14:28.113Z,7.30
2023-01-04T02:17:10.966Z,7.20
2023-01-04T02:19:37.547Z,7.20
2023-01-04T02:22:13.312Z,7.20
2023-01-04T02:25:15.880Z,7.20
2023-01-04T02:28:10.446Z,7.10
2023-01-04T02:30:52.122Z,7.10
2023-01-04T02:33:51.405Z,7.00
2023-01-04T02:36:37.664Z,7.00
2023-01-04T02:39:07.326Z,7.00
2023-01-04T02:41:37.565Z,7.10
2023-01-04T02:44:41.422Z,7.10
2023-01-04T02:47:15.831Z,7.10
2023-01-04T02:50:05.022Z,7.10
2023-01-04T02:52:33.055Z,7.10
2023-01-04T02:55:07.457Z,7.20
2023-01-04T02:57:48.906Z,7.20
2023-01-04T03:00:35.908Z,7.10
2023-01-04T03:03:32.195Z,7.20
2023-01-04T03:06:16.695Z,7.20
2023-01-04T03:09:10.284Z,7.10
2023-01-04T03:12:11.917Z,7.20
2023-01-04T03:15:01.011Z,7.20
2023-01-04T03:17:33.597Z,7.20
2023-01-04T03:20:00.581Z,7.10
2023-01-04T03:23:00.447Z,7.10
2023-01-04T03:26:00.531Z,7.10
2023-01-04T03:28:55.075Z,7.20
2023-01-04T03:32:11.545Z,7.20
2023-01-04T03:34:56.977Z,7.10
2023-01-04T03:37:34.456Z,7.20
2023-01-04T03:40:36.792Z,7.20
2023-01-04T03:43:35.763Z,7.10
2023-01-04T03:46:32.456Z,7.10
2023-01-04T03:49:05.595Z,7.10
2023-01-04T03:51:37.390Z,7.10
2023-01-04T03:54:19.069Z,7.10
2023-01-04T03:56:47.968Z,7.10
2023-01-04T03:59:14.669Z,7.10
2023-01-04T04:01:43.667Z,7.10
2023-01-04T04:04:30.187Z,7.00
2023-01-04T04:07:15.763Z,7.00
2023-01-04T04:09:42.549Z,7.00
2023-01-04T04:12:09.191Z,7.00
2023-01-04T04:14:35.977Z,7.00
2023-01-04T04:17:02.730Z,7.00
2023-01-04T04:19:29.473Z,7.00
2023-01-04T04:21:56.082Z,7.00
2023-01-04T04:24:26.003Z,7.00
2023-01-04T04:26:56.739Z,7.00
2023-01-04T04:29:24.418Z,7.00
2023-01-04T04:31:51.264Z,7.00
2023-01-04T04:34:18.161Z,6.90
2023-01-04T04:36:44.815Z,6.90
2023-01-04T04:39:12.195Z,6.90
2023-01-04T04:41:41.165Z,7.00
2023-01-04T04:44:13.468Z,7.00
2023-01-04T04:46:40.837Z,7.00
2023-01-04T04:49:08.196Z,7.00
2023-01-04T04:51:34.993Z,7.00
2023-01-04T04:54:02.499Z,7.00
2023-01-04T04:56:29.142Z,7.00
2023-01-04T04:58:55.983Z,7.00
2023-01-04T05:01:22.787Z,7.00
2023-01-04T05:03:49.605Z,7.00
2023-01-04T05:06:16.610Z,7.00
2023-01-04T05:08:43.231Z,7.00
2023-01-04T05:11:11.927Z,7.00
2023-01-04T05:13:38.580Z,7.00
2023-01-04T05:16:07.131Z,7.00
2023-01-04T05:18:33.897Z,7.00
2023-01-04T05:21:00.911Z,6.90
2023-01-04T05:23:27.522Z,6.90
2023-01-04T05:25:58.537Z,6.90
2023-01-04T05:28:25.392Z,6.90
2023-01-04T05:30:53.867Z,6.90
2023-01-04T05:33:25.469Z,6.90
2023-01-04T05:35:53.186Z,6.90
2023-01-04T05:38:20.936Z,6.90
2023-01-04T05:40:48.681Z,7.00
2023-01-04T05:43:16.447Z,7.00
2023-01-04T05:45:46.764Z,7.00
2023-01-04T05:48:13.497Z,7.10
2023-01-04T05:50:40.536Z,7.10
2023-01-04T05:53:07.596Z,7.10
2023-01-04T05:55:34.407Z,7.10
2023-01-04T05:58:01.197Z,7.10
2023-01-04T06:00:27.903Z,7.10
2023-01-04T06:02:55.515Z,7.10
2023-01-04T06:05:22.948Z,7.10
2023-01-04T06:07:49.720Z,7.10
2023-01-04T06:10:16.871Z,7.00
2023-01-04T06:12:43.531Z,7.00
2023-01-04T06:15:11.625Z,7.00
2023-01-04T06:17:39.390Z,7.00
2023-01-04T06:20:09.455Z,7.00
2023-01-04T06:22:37.263Z,7.00
2023-01-04T06:25:04.792Z,7.00
2023-01-04T06:27:31.471Z,6.90
2023-01-04T06:29:58.134Z,7.00
2023-01-04T06:32:24.783Z,6.90
2023-01-04T06:34:51.414Z,6.90
2023-01-04T06:37:18.050Z,6.90
2023-01-04T06:39:44.700Z,6.90
2023-01-04T06:42:31.339Z,6.90
2023-01-04T06:44:57.962Z,6.80
2023-01-04T06:47:24.593Z,6.80
2023-01-04T06:49:51.309Z,6.80
2023-01-04T06:52:17.923Z,6.80
2023-01-04T06:54:44.621Z,6.80
2023-01-04T06:57:11.601Z,6.80
2023-01-04T06:59:38.202Z,6.80
2023-01-04T07:02:04.993Z,6.80
2023-01-04T07:04:31.880Z,6.80
2023-01-04T07:06:58.516Z,6.80
2023-01-04T07:09:25.131Z,6.80
2023-01-04T07:11:51.822Z,6.80
2023-01-04T07:14:18.592Z,6.80
2023-01-04T07:16:45.348Z,6.80
2023-01-04T07:19:12.053Z,6.80
2023-01-04T07:21:38.664Z,6.80
2023-01-04T07:24:05.331Z,6.80
2023-01-04T07:26:32.005Z,6.80
2023-01-04T07:29:17.111Z,6.80
2023-01-04T07:31:49.508Z,6.80
2023-01-04T07:34:17.591Z,6.80
2023-01-04T07:36:44.557Z,6.80
2023-01-04T07:39:12.502Z,6.80
2023-01-04T07:41:40.110Z,6.80
2023-01-04T07:44:07.315Z,6.80
2023-01-04T07:46:34.756Z,6.80
2023-01-04T07:49:01.807Z,6.80
2023-01-04T07:51:30.201Z,6.80
2023-01-04T07:53:56.891Z,6.80
2023-01-04T07:56:23.517Z,6.90
2023-01-04T07:58:56.793Z,6.90
2023-01-04T08:01:25.441Z,6.90
2023-01-04T08:03:52.755Z,6.90
2023-01-04T08:06:21.393Z,6.90
2023-01-04T08:08:48.547Z,6.90
2023-01-04T08:11:22.302Z,6.80
2023-01-04T08:13:48.947Z,6.80
2023-01-04T08:16:20.920Z,6.80
2023-01-04T08:18:48.634Z,6.90
2023-01-04T08:21:15.311Z,6.90
2023-01-04T08:23:41.992Z,6.90
2023-01-04T08:26:12.485Z,6.90
2023-01-04T08:28:39.768Z,6.90
2023-01-04T08:31:09.474Z,6.90
2023-01-04T08:33:38.432Z,6.90
2023-01-04T08:36:28.942Z,6.90
2023-01-04T08:39:00.975Z,6.90
2023-01-04T08:44:18.073Z,6.90
2023-01-04T08:46:45.353Z,7.00
2023-01-04T08:49:12.073Z,7.00
2023-01-04T08:51:38.855Z,7.00
2023-01-04T08:54:05.508Z,7.00
2023-01-04T08:56:32.159Z,7.00
2023-01-04T08:58:58.833Z,7.00
2023-01-04T09:01:25.572Z,7.00
2023-01-04T09:03:52.419Z,7.00
2023-01-04T09:06:19.118Z,7.00
2023-01-04T09:08:45.786Z,7.00
2023-01-04T09:11:18.623Z,7.00
2023-01-04T09:13:45.944Z,7.00
2023-01-04T09:16:15.288Z,7.10
2023-01-04T09:18:42.411Z,7.10
2023-01-04T09:21:12.527Z,7.10
2023-01-04T09:23:39.921Z,7.10
2023-01-04T09:26:12.362Z,7.10
2023-01-04T09:28:39.761Z,7.20
2023-01-04T09:31:14.742Z,7.20
2023-01-04T09:34:12.922Z,7.20
2023-01-04T09:36:29.478Z,7.20
2023-01-04T09:38:56.193Z,7.30
2023-01-04T09:41:30.575Z,7.30
2023-01-04T09:44:09.535Z,7.30
2023-01-04T09:47:18.010Z,7.30
2023-01-04T09:49:56.819Z,7.40
2023-01-04T09:52:47.568Z,7.40
2023-01-04T09:55:37.665Z,7.50
2023-01-04T09:58:35.459Z,7.50
2023-01-04T10:01:08.418Z,7.50
2023-01-04T10:03:40.092Z,7.60
2023-01-04T10:06:12.163Z,7.60
2023-01-04T10:08:41.748Z,7.70
2023-01-04T10:11:28.662Z,7.70
2023-01-04T10:14:18.257Z,7.70
2023-01-04T10:17:14.274Z,7.70
2023-01-04T10:22:38.536Z,7.80
2023-01-04T10:25:26.319Z,7.80
2023-01-04T10:28:24.857Z,7.80
2023-01-04T10:31:40.695Z,7.90
2023-01-04T10:34:18.809Z,7.90
2023-01-04T10:36:47.536Z,7.90
2023-01-04T10:39:26.973Z,7.80
2023-01-04T10:42:19.333Z,7.80
2023-01-04T10:45:01.915Z,7.80
2023-01-04T10:48:11.118Z,7.90
2023-01-04T10:51:05.020Z,7.90
2023-01-04T10:53:46.663Z,7.90
2023-01-04T10:56:25.623Z,8.00
2023-01-04T10:58:57.273Z,8.00
2023-01-04T11:01:34.864Z,8.10
2023-01-04T11:04:10.437Z,8.00
2023-01-04T11:06:44.719Z,8.10
2023-01-04T11:09:25.350Z,8.20
2023-01-04T11:11:57.098Z,8.20
2023-01-04T11:14:25.644Z,8.20
2023-01-04T11:16:58.970Z,8.30
2023-01-04T11:19:25.788Z,8.30
2023-01-04T11:22:05.999Z,8.30
2023-01-04T11:24:34.282Z,8.40
2023-01-04T11:27:14.671Z,8.40
2023-01-04T11:29:44.784Z,8.40
2023-01-04T11:32:24.505Z,8.50
2023-01-04T11:34:54.151Z,8.50
2023-01-04T11:37:33.517Z,8.50
2023-01-04T11:40:15.296Z,8.50
2023-01-04T11:42:42.404Z,8.60
2023-01-04T11:45:35.341Z,8.60
2023-01-04T11:48:12.382Z,8.60
2023-01-04T11:50:47.661Z,8.70
2023-01-04T11:53:24.918Z,8.70
2023-01-04T11:55:52.478Z,8.70
2023-01-04T11:58:20.865Z,8.80
2023-01-04T12:00:57.473Z,8.80
2023-01-04T12:03:34.394Z,8.80
2023-01-04T12:06:01.056Z,8.80
2023-01-04T12:08:37.298Z,8.90
2023-01-04T12:11:05.978Z,8.90
2023-01-04T12:13:34.090Z,9.00
2023-01-04T12:16:07.756Z,9.00
2023-01-04T12:18:41.697Z,9.00
2023-01-04T12:21:24.536Z,9.00
2023-01-04T12:23:53.172Z,9.00
2023-01-04T12:26:20.629Z,9.10
2023-01-04T12:29:07.304Z,9.10
2023-01-04T12:31:34.062Z,9.20
2023-01-04T12:34:23.363Z,9.10
2023-01-04T12:37:04.908Z,9.20
2023-01-04T12:39:43.541Z,9.30
2023-01-04T12:42:21.089Z,9.40
2023-01-04T12:44:47.828Z,9.40
2023-01-04T12:47:39.069Z,9.50
2023-01-04T12:50:23.039Z,9.50
2023-01-04T12:53:11.280Z,9.50
2023-01-04T12:55:44.894Z,9.50
2023-01-04T12:58:58.204Z,9.60
2023-01-04T13:01:28.527Z,9.50
2023-01-04T13:04:04.730Z,9.60
2023-01-04T13:06:39.429Z,9.60
2023-01-04T13:09:23.679Z,9.50
2023-01-04T13:12:04.759Z,9.50
2023-01-04T13:14:46.842Z,9.50
2023-01-04T13:17:15.817Z,9.50
2023-01-04T13:19:44.002Z,9.50
2023-01-04T13:22:23.398Z,9.70
2023-01-04T13:24:56.287Z,9.60
2023-01-04T13:27:24.006Z,9.60
2023-01-04T13:29:52.246Z,9.60
2023-01-04T13:32:28.192Z,9.70
2023-01-04T13:34:59.580Z,9.60
2023-01-04T13:37:28.224Z,9.70
2023-01-04T13:40:21.565Z,9.70
2023-01-04T13:43:02.004Z,9.70
2023-01-04T13:45:46.284Z,9.70
2023-01-04T13:48:19.549Z,9.70
2023-01-04T13:51:02.826Z,9.70
2023-01-04T13:53:31.532Z,9.70
2023-01-04T13:56:00.439Z,9.70
2023-01-04T13:58:30.780Z,9.70
2023-01-04T14:01:07.466Z,9.70
2023-01-04T14:03:57.060Z,9.70
2023-01-04T14:06:34.833Z,9.70
2023-01-04T14:09:06.235Z,9.70
2023-01-04T14:11:56.305Z,9.70
2023-01-04T14:14:45.041Z,9.80
2023-01-04T14:17:36.237Z,9.80
2023-01-04T14:20:26.524Z,9.80
2023-01-04T14:22:57.693Z,9.80
2023-01-04T14:25:40.999Z,9.80
2023-01-04T14:28:24.324Z,9.80
2023-01-04T14:30:58.655Z,9.90
2023-01-04T14:33:41.876Z,9.90
2023-01-04T14:36:30.374Z,9.90
2023-01-04T14:39:10.188Z,9.90
2023-01-04T14:41:41.772Z,9.90
2023-01-04T14:44:13.202Z,9.90
2023-01-04T14:46:41.741Z,9.90
2023-01-04T14:49:08.655Z,9.90
2023-01-04T14:51:50.903Z,9.90
2023-01-04T14:54:24.713Z,9.90
2023-01-04T14:56:53.898Z,10.00
2023-01-04T14:59:23.694Z,10.00
2023-01-04T15:01:52.217Z,10.00
2023-01-04T15:04:19.130Z,9.90
2023-01-04T15:07:04.225Z,9.90
2023-01-04T15:09:30.952Z,9.90
2023-01-04T15:11:57.593Z,9.90
2023-01-04T15:14:24.542Z,9.90
2023-01-04T15:16:51.325Z,9.90
2023-01-04T15:19:18.003Z,9.80
2023-01-04T15:21:44.673Z,9.80
2023-01-04T15:24:11.315Z,9.80
2023-01-04T15:26:39.613Z,9.70
2023-01-04T15:29:06.755Z,9.70
2023-01-04T15:31:38.761Z,9.70
2023-01-04T15:34:06.377Z,9.60
2023-01-04T15:36:33.094Z,9.50
2023-01-04T15:38:59.740Z,9.50
2023-01-04T15:41:44.895Z,9.60
2023-01-04T15:44:11.892Z,9.60
2023-01-04T15:46:39.080Z,9.50
2023-01-04T15:49:08.276Z,9.50
2023-01-04T15:51:37.386Z,9.50
2023-01-04T15:54:04.240Z,9.50
2023-01-04T15:56:30.922Z,9.50
2023-01-04T15:58:57.594Z,9.40
2023-01-04T16:01:24.384Z,9.40
2023-01-04T16:03:53.859Z,9.40
2023-01-04T16:06:21.541Z,9.40
2023-01-04T16:08:49.737Z,9.40
2023-01-04T16:11:21.984Z,9.40
2023-01-04T16:13:50.749Z,9.40
2023-01-04T16:16:18.613Z,9.30
2023-01-04T16:18:53.773Z,9.30
2023-01-04T16:21:28.504Z,9.30
2023-01-04T16:24:05.502Z,9.30
2023-01-04T16:26:36.431Z,9.30
2023-01-04T16:29:03.296Z,9.30
2023-01-04T16:31:37.188Z,9.30
2023-01-04T16:34:05.069Z,9.30
2023-01-04T16:36:32.065Z,9.30
2023-01-04T16:38:58.669Z,9.30
2023-01-04T16:41:25.286Z,9.30
2023-01-04T16:43:55.238Z,9.30
2023-01-04T16:46:31.094Z,9.30
2023-01-04T16:49:06.173Z,9.30
2023-01-04T16:51:35.449Z,9.30
2023-01-04T16:54:04.571Z,9.30
2023-01-04T16:56:31.989Z,9.30
2023-01-04T16:58:58.830Z,9.30
2023-01-04T17:01:28.093Z,9.30
2023-01-04T17:03:57.485Z,9.30
2023-01-04T17:06:26.645Z,9.30
2023-01-04T17:08:54.794Z,9.30
2023-01-04T17:12:19.265Z,9.30
2023-01-04T17:14:13.755Z,9.30
2023-01-04T17:16:40.918Z,9.30
2023-01-04T17:19:07.657Z,9.30
2023-01-04T17:21:35.571Z,9.30
2023-01-04T17:24:03.007Z,9.30
2023-01-04T17:26:31.648Z,9.30
2023-01-04T17:29:00.005Z,9.30
2023-01-04T17:31:30.181Z,9.30
2023-01-04T17:33:57.168Z,9.20
2023-01-04T17:36:23.846Z,9.20
2023-01-04T17:38:50.827Z,9.30
2023-01-04T17:41:22.781Z,9.20
2023-01-04T17:43:52.067Z,9.20
2023-01-04T17:46:23.503Z,9.20
2023-01-04T17:48:58.955Z,9.20
2023-01-04T17:51:39.699Z,9.20
2023-01-04T17:54:08.192Z,9.20
2023-01-04T17:56:36.852Z,9.30
2023-01-04T17:59:06.735Z,9.30
2023-01-04T18:01:34.773Z,9.30
2023-01-04T18:04:02.299Z,9.30
2023-01-04T18:06:33.025Z,9.30
2023-01-04T18:09:00.196Z,9.30
2023-01-04T18:11:27.332Z,9.40
2023-01-04T18:13:54.103Z,9.40
2023-01-04T18:16:25.709Z,9.40
2023-01-04T18:18:54.657Z,9.40
2023-01-04T18:21:28.294Z,9.30
2023-01-04T18:27:19.890Z,9.30
2023-01-04T18:29:34.826Z,9.30
2023-01-04T18:32:01.575Z,9.30
2023-01-04T18:34:28.330Z,9.30
2023-01-04T18:36:54.934Z,9.30
2023-01-04T18:39:22.046Z,9.30
2023-01-04T18:41:48.871Z,9.40
2023-01-04T18:44:32.616Z,9.40
2023-01-04T18:46:59.801Z,9.50
2023-01-04T18:49:26.440Z,9.50
2023-01-04T18:51:53.051Z,9.50
2023-01-04T18:54:21.416Z,9.50
2023-01-04T18:56:48.308Z,9.60
2023-01-04T18:59:17.192Z,9.60
2023-01-04T19:01:45.184Z,9.60
2023-01-04T19:04:17.377Z,9.60
2023-01-04T19:06:44.352Z,9.60
2023-01-04T19:09:10.989Z,9.60
2023-01-04T19:11:37.681Z,9.70
2023-01-04T19:14:04.367Z,9.80
2023-01-04T19:16:31.563Z,9.80
2023-01-04T19:19:01.693Z,9.80
2023-01-04T19:21:29.115Z,9.90
2023-01-04T19:23:56.507Z,9.90
2023-01-04T19:26:23.866Z,9.90
2023-01-04T19:28:51.620Z,9.90
2023-01-04T19:31:20.112Z,9.90
2023-01-04T19:33:47.282Z,10.00
2023-01-04T19:36:15.826Z,10.00
2023-01-04T19:38:42.696Z,10.00
2023-01-04T19:41:16.054Z,10.00
2023-01-04T19:43:42.908Z,10.00
2023-01-04T19:46:11.667Z,10.00
2023-01-04T19:48:38.975Z,10.10
2023-01-04T19:51:14.887Z,10.00
2023-01-04T19:53:42.900Z,10.00
2023-01-04T19:56:10.813Z,10.10
2023-01-04T19:58:38.118Z,10.10
2023-01-04T20:01:05.586Z,10.10
2023-01-04T20:03:32.677Z,10.10
2023-01-04T20:06:04.868Z,10.10
2023-01-04T20:08:36.304Z,10.10
2023-01-04T20:11:03.155Z,10.10
2023-01-04T20:13:31.392Z,10.10
2023-01-04T20:15:58.104Z,10.10
2023-01-04T20:18:24.941Z,10.10
2023-01-04T20:20:52.291Z,10.10
2023-01-04T20:23:21.496Z,10.10
2023-01-04T20:25:50.583Z,10.10
2023-01-04T20:28:19.714Z,10.10
2023-01-04T20:30:46.649Z,10.10
2023-01-04T20:33:13.466Z,10.10
2023-01-04T20:35:43.280Z,10.10
2023-01-04T20:38:11.565Z,10.10
2023-01-04T20:40:39.063Z,10.10
2023-01-04T20:43:24.676Z,10.10
2023-01-04T20:45:51.463Z,10.10
2023-01-04T20:48:18.171Z,10.20
2023-01-04T20:50:45.165Z,10.10
2023-01-04T20:53:13.316Z,10.10
2023-01-04T20:55:41.582Z,10.10
2023-01-04T20:58:09.024Z,10.10
2023-01-04T21:00:37.057Z,10.10
2023-01-04T21:03:05.687Z,10.10
2023-01-04T21:05:40.932Z,10.20
2023-01-04T21:08:07.850Z,10.30
2023-01-04T21:10:35.605Z,10.20
2023-01-04T21:13:03.634Z,10.20
2023-01-04T21:15:30.406Z,10.30
2023-01-04T21:17:57.115Z,10.20
2023-01-04T21:20:24.554Z,10.20
2023-01-04T21:22:51.197Z,10.20
2023-01-04T21:25:17.951Z,10.20
2023-01-04T21:27:44.668Z,10.30
2023-01-04T21:30:12.012Z,10.30
2023-01-04T21:32:38.616Z,10.20
2023-01-04T21:35:06.004Z,10.20
2023-01-04T21:37:32.882Z,10.10
2023-01-04T21:39:59.526Z,10.00
2023-01-04T21:42:26.139Z,9.90
2023-01-04T21:44:52.756Z,10.00
2023-01-04T21:47:19.402Z,10.00
2023-01-04T21:49:47.388Z,10.00
2023-01-04T21:52:14.088Z,10.00
2023-01-04T21:54:40.756Z,10.00
2023-01-04T21:57:08.011Z,10.00
2023-01-04T21:59:35.755Z,10.10
2023-01-04T22:02:02.748Z,10.10
2023-01-04T22:04:29.597Z,10.10
2023-01-04T22:06:56.348Z,10.10
2023-01-04T22:09:23.086Z,10.20
2023-01-04T22:11:50.188Z,10.20
2023-01-04T22:14:18.113Z,10.40
2023-01-04T22:16:44.933Z,10.20
2023-01-04T22:19:13.197Z,10.30
2023-01-04T22:21:40.170Z,10.30
2023-01-04T22:24:07.704Z,10.30
2023-01-04T22:26:34.387Z,10.40
2023-01-04T22:29:01.133Z,10.40
2023-01-04T22:31:27.822Z,10.40
2023-01-04T22:33:54.637Z,10.40
2023-01-04T22:36:23.400Z,10.40
2023-01-04T22:38:51.826Z,10.50
2023-01-04T22:41:21.260Z,10.50
2023-01-04T22:43:48.257Z,10.50
2023-01-04T22:46:17.583Z,10.60
2023-01-04T22:48:45.224Z,10.60
2023-01-04T22:51:14.509Z,10.60
2023-01-04T22:53:41.764Z,10.60
2023-01-04T22:56:20.095Z,10.60
2023-01-04T22:58:52.403Z,10.70
2023-01-04T23:01:21.321Z,10.70
2023-01-04T23:03:48.646Z,10.70
2023-01-04T23:06:15.674Z,10.70
2023-01-04T23:08:42.537Z,10.70
2023-01-04T23:11:13.540Z,10.80
2023-01-04T23:13:40.323Z,10.90
2023-01-04T23:16:11.492Z,10.80
2023-01-04T23:18:38.215Z,10.80
2023-01-04T23:21:05.569Z,10.80
2023-01-04T23:23:33.468Z,10.80
2023-01-04T23:26:09.315Z,10.90
2023-01-04T23:28:37.089Z,10.90
2023-01-04T23:31:09.080Z,10.80
2023-01-04T23:33:36.942Z,10.80
2023-01-04T23:36:12.472Z,10.90
2023-01-04T23:38:39.786Z,10.90
2023-01-04T23:41:06.932Z,10.90
2023-01-04T23:43:38.489Z,10.80
2023-01-04T23:46:07.199Z,10.90
2023-01-04T23:48:33.848Z,10.90
2023-01-04T23:51:00.599Z,10.90
2023-01-04T23:53:27.301Z,10.90
2023-01-04T23:56:06.110Z,10.90
2023-01-04T23:58:33.800Z,10.90
